Flight Track Log - Related Links

Times and Time Zones

All times are in EDT time to prevent confusion due to time zone crossing. See the VH-UPY flight status page for this flight to view local times or setup timezone preferences in your user account.

Time Position Orientation Groundspeed Altitude Reporting Facility
EDT Latitude Longitude Course Direction KTS MPH feet Rate Location/Type
Tue 02:16:36 AM -25.3987 152.8933 172° South 200  Level Aus ATC (Calculated)
Tue 02:17:35 AM -25.4737 152.9055 172° South 200 1,059 Level Aus ATC (Calculated)
Tue 02:19:00 AM -25.5181 152.9127 172° South  Level FlightAware Approximate
Tue 02:20:00 AM -25.5495 152.9178 172° South  Level FlightAware Approximate
Tue 02:21:00 AM -25.5809 152.9229 172° South  Level FlightAware Approximate
Tue 02:21:25 AM -25.5838 152.9221 172° South 142 163 5,300  Level Aus ATC (RADAR)
Tue 02:22:15 AM -25.6160 152.9288 169° South 142 163 5,800 635 Climbing Aus ATC (RADAR)
Tue 02:22:50 AM -25.6391 152.9322 173° South 143 165 6,200 600 Climbing Aus ATC (RADAR)
Tue 02:23:25 AM -25.6621 152.9354 173° South 143 165 6,500 525 Climbing Aus ATC (RADAR)
Tue 02:24:10 AM -25.6926 152.9363 178° South 146 168 6,900 375 Climbing Aus ATC (RADAR)
Tue 02:24:45 AM -25.7173 152.9390 174° South 152 175 7,000 52 Climbing Aus ATC (RADAR)
Tue 02:26:05 AM -25.7792 152.9440 176° South 168 193 7,000  Level Aus ATC (RADAR)
Tue 02:26:40 AM -25.8070 152.9456 177° South 171 197 7,000  Level Aus ATC (RADAR)
Tue 02:27:34 AM -25.8495 152.9553 169° South 170 196 7,000  Level Aus ATC (RADAR)
Tue 02:28:10 AM -25.8755 152.9636 164° South 168 193 7,000  Level Aus ATC (RADAR)
Tue 02:29:19 AM -25.9288 152.9804 164° South 174 200 7,000 -301 Level Aus ATC (RADAR)
Tue 02:31:49 AM -26.0548 153.0001 172° South 183 211 5,900 -460 Descending Aus ATC (RADAR)
Tue 02:33:14 AM -26.1280 153.0118 172° South 189 217 5,200 -489 Descending Aus ATC (RADAR)
Tue 02:34:04 AM -26.1720 153.0180 173° South 191 220 4,800 -550 Descending Aus ATC (RADAR)
Tue 02:35:03 AM -26.2241 153.0283 170° South 186 214 4,200 -582 Descending Aus ATC (RADAR)
Tue 02:36:18 AM -26.2849 153.0382 172° South 174 200 3,500 -578 Descending Aus ATC (RADAR)
Tue 02:37:18 AM -26.3321 153.0489 169° South 172 198 2,900 -545 Descending Aus ATC (RADAR)
Tue 02:38:08 AM -26.3705 153.0554 171° South 166 191 2,500 -467 Descending Aus ATC (RADAR)
Tue 02:38:48 AM -26.4009 153.0604 172° South 164 189 2,200 -400 Descending Aus ATC (RADAR)
Tue 02:39:38 AM -26.4391 153.0658 173° South 165 190 1,900 -400 Descending Aus ATC (RADAR)
Tue 02:40:18 AM -26.4694 153.0689 175° South 163 188 1,600 -353 Descending Aus ATC (RADAR)
Tue 02:41:03 AM -26.5022 153.0756 170° South 159 183 1,400 -286 Descending Aus ATC (RADAR)
Tue 02:42:03 AM -26.5377 153.0857 166° South 125 144 1,100 -231 Descending Aus ATC (RADAR)
Tue 02:42:47 AM -26.5614 153.0909 169° South 115 132 1,000 -228 Descending Aus ATC (RADAR)
Tue 02:43:22 AM -26.5758 153.0992 153° Southeast 101 116 800 -343 Descending Aus ATC (RADAR)

Login

Don't have an account? Register now (free) for customized features, flight alerts, and more!